Time;durP1;ratioP1;P1;durP2;ratioP2;P2;SDS_P1;SDS_P2;PMS_P1;PMS_P2;Temp;Humidity;BMP_temperature;BMP_pressure;BME280_temperature;BME280_humidity;BME280_pressure;Samples;Min_cycle;Max_cycle;Signal;HPM_P1;HPM_P2
2022/08/29 00:00:27;;;;;;;14.35;10.58;;;;;;;18.48;93.54;98626.84;1656564;86;25433;-60
2022/08/29 00:02:58;;;;;;;13.78;9.80;;;;;;;18.46;93.90;98625.05;1656302;86;25684;-60
2022/08/29 00:05:30;;;;;;;11.88;8.53;;;;;;;18.46;93.80;98627.82;1656460;85;28252;-60
2022/08/29 00:07:58;;;;;;;11.65;8.53;;;;;;;18.46;93.58;98625.62;1656372;86;25554;-60
2022/08/29 00:10:26;;;;;;;10.82;8.60;;;;;;;18.46;93.31;98626.44;1656615;86;25635;-60
2022/08/29 00:12:52;;;;;;;13.72;8.83;;;;;;;18.42;93.03;98626.36;1656404;86;25683;-60
2022/08/29 00:15:20;;;;;;;11.88;8.40;;;;;;;18.36;93.94;98622.28;1656310;86;25607;-60
2022/08/29 00:17:46;;;;;;;13.78;7.97;;;;;;;18.36;93.61;98625.05;1656167;86;27448;-59
2022/08/29 00:20:18;;;;;;;13.45;8.28;;;;;;;18.34;93.26;98627.98;1656432;86;25698;-59
2022/08/29 00:22:45;;;;;;;9.93;7.90;;;;;;;18.31;93.27;98620.60;1656293;86;25707;-59
2022/08/29 00:25:14;;;;;;;11.70;7.92;;;;;;;18.32;93.27;98618.64;1656359;86;25730;-59
2022/08/29 00:27:40;;;;;;;11.28;8.28;;;;;;;18.34;93.22;98618.27;1656391;85;25465;-60
2022/08/29 00:30:09;;;;;;;11.28;8.38;;;;;;;18.34;92.97;98621.05;1656153;86;27449;-59
2022/08/29 00:32:36;;;;;;;13.00;7.92;;;;;;;18.36;92.94;98623.66;1656292;85;25742;-59
2022/08/29 00:35:11;;;;;;;10.63;8.10;;;;;;;18.34;92.73;98617.70;1656478;85;25694;-59
2022/08/29 00:37:38;;;;;;;9.93;8.18;;;;;;;18.31;92.94;98623.38;1656355;86;25892;-59
2022/08/29 00:40:07;;;;;;;10.08;7.28;;;;;;;18.29;93.13;98630.47;1656576;86;25829;-59
2022/08/29 00:42:34;;;;;;;13.30;7.67;;;;;;;18.27;93.19;98625.86;1656527;86;27369;-59
2022/08/29 00:45:04;;;;;;;11.45;7.62;;;;;;;18.27;93.34;98632.22;1656067;86;25639;-59
2022/08/29 00:47:35;;;;;;;11.03;7.35;;;;;;;18.25;93.00;98628.22;1656633;85;25528;-59
2022/08/29 00:50:07;;;;;;;9.95;6.95;;;;;;;18.22;92.97;98622.80;1656509;86;25719;-59
2022/08/29 00:52:42;;;;;;;9.15;6.45;;;;;;;18.20;93.38;98625.16;1656209;85;25469;-58
2022/08/29 00:55:13;;;;;;;11.10;6.37;;;;;;;18.20;93.02;98625.16;1655906;86;27348;-58
2022/08/29 00:57:43;;;;;;;8.83;5.95;;;;;;;18.21;92.96;98628.71;1656443;86;25703;-58
2022/08/29 01:00:12;;;;;;;7.85;5.75;;;;;;;18.23;92.55;98637.48;1656375;86;25623;-59
2022/08/29 01:02:40;;;;;;;9.35;6.53;;;;;;;18.14;92.50;98627.41;1656457;85;25725;-59
2022/08/29 01:05:10;;;;;;;8.28;5.87;;;;;;;18.13;92.53;98630.57;1656383;85;25652;-58
2022/08/29 01:07:38;;;;;;;7.78;5.60;;;;;;;18.12;92.74;98628.94;1656535;85;28347;-58
2022/08/29 01:10:07;;;;;;;7.92;5.35;;;;;;;18.13;92.79;98623.64;1656481;85;25703;-58
2022/08/29 01:12:35;;;;;;;8.65;5.50;;;;;;;18.09;92.46;98626.87;1656524;85;25717;-58
2022/08/29 01:15:06;;;;;;;8.73;5.37;;;;;;;18.04;92.42;98630.73;1656716;86;25765;-58
2022/08/29 01:17:38;;;;;;;8.85;5.42;;;;;;;18.01;92.54;98627.30;1656376;86;25671;-58
2022/08/29 01:20:45;;;;;;;8.58;4.85;;;;;;;17.98;92.55;98628.03;1656294;86;28345;-58
2022/08/29 01:23:22;;;;;;;8.38;5.12;;;;;;;18.00;92.58;98629.87;1656045;86;27125;-59
2022/08/29 01:25:51;;;;;;;9.45;5.00;;;;;;;17.99;92.33;98628.27;1656734;86;25660;-58
2022/08/29 01:28:24;;;;;;;6.47;4.60;;;;;;;17.99;92.25;98629.66;1656612;86;25720;-58
2022/08/29 01:31:16;;;;;;;10.70;4.85;;;;;;;18.00;92.53;98631.25;1656357;86;25506;-58
2022/08/29 01:33:48;;;;;;;7.42;4.75;;;;;;;17.99;92.23;98632.44;1656283;86;27505;-59
2022/08/29 01:36:29;;;;;;;7.30;4.30;;;;;;;17.97;92.24;98631.41;1656185;85;25972;-58
2022/08/29 01:38:55;;;;;;;7.83;4.53;;;;;;;17.94;92.02;98630.75;1656888;86;25611;-58
2022/08/29 01:41:21;;;;;;;8.50;4.40;;;;;;;17.86;92.06;98639.50;1656647;85;25701;-58
2022/08/29 01:43:52;;;;;;;6.78;4.10;;;;;;;17.82;92.01;98645.56;1656402;85;25680;-58
2022/08/29 01:46:26;;;;;;;6.92;4.62;;;;;;;17.77;92.13;98637.52;1656379;86;26822;-58
2022/08/29 01:48:53;;;;;;;7.20;4.30;;;;;;;17.75;91.89;98647.58;1656470;86;25688;-58
2022/08/29 01:51:20;;;;;;;10.32;4.62;;;;;;;17.67;91.89;98643.03;1656336;86;25613;-58
2022/08/29 01:53:46;;;;;;;6.95;4.05;;;;;;;17.63;91.64;98642.97;1656842;85;25865;-58
2022/08/29 01:56:26;;;;;;;7.37;4.08;;;;;;;17.58;91.53;98647.40;1656611;86;25647;-58
2022/08/29 01:58:55;;;;;;;6.58;4.20;;;;;;;17.56;91.36;98644.99;1656766;86;27293;-58
2022/08/29 02:01:25;;;;;;;9.63;4.25;;;;;;;17.51;91.20;98645.86;1656312;86;25623;-58
2022/08/29 02:03:51;;;;;;;7.47;4.20;;;;;;;17.47;91.38;98647.16;1656754;85;25458;-58
2022/08/29 02:06:19;;;;;;;7.80;4.22;;;;;;;17.47;91.22;98643.00;1656141;85;25766;-58
2022/08/29 02:08:45;;;;;;;8.08;4.17;;;;;;;17.48;91.27;98643.81;1656303;86;25694;-58
2022/08/29 02:11:12;;;;;;;6.85;3.65;;;;;;;17.47;91.58;98643.00;1656666;86;27438;-58
2022/08/29 02:13:44;;;;;;;6.85;3.83;;;;;;;17.45;91.38;98643.14;1656440;85;25469;-58
2022/08/29 02:16:16;;;;;;;9.93;4.28;;;;;;;17.42;91.45;98636.37;1656501;86;25683;-58
2022/08/29 02:18:56;;;;;;;6.33;3.80;;;;;;;17.39;91.17;98635.10;1657001;86;25977;-58
2022/08/29 02:21:31;;;;;;;5.47;3.75;;;;;;;17.40;91.40;98637.30;1656599;85;25475;-58
2022/08/29 02:24:05;;;;;;;7.30;3.83;;;;;;;17.35;91.12;98641.72;1653467;85;27492;-58
2022/08/29 02:26:40;;;;;;;8.10;3.90;;;;;;;17.30;91.16;98648.38;1649390;86;25543;-59
2022/08/29 02:29:12;;;;;;;8.03;3.72;;;;;;;17.27;91.40;98649.87;1649339;87;25421;-58
2022/08/29 02:31:46;;;;;;;7.42;3.90;;;;;;;17.25;91.36;98643.09;1649380;87;26680;-58
2022/08/29 02:34:20;;;;;;;8.75;3.87;;;;;;;17.25;91.22;98651.41;1649223;87;25690;-59
2022/08/29 02:36:53;;;;;;;6.58;4.30;;;;;;;17.23;91.25;98646.22;1649376;87;27385;-58
2022/08/29 02:39:23;;;;;;;9.40;3.77;;;;;;;17.21;91.07;98655.45;1649463;86;25620;-59
2022/08/29 02:41:54;;;;;;;7.30;3.70;;;;;;;17.23;91.20;98652.33;1649725;87;25486;-58
2022/08/29 02:44:28;;;;;;;8.98;3.80;;;;;;;17.22;91.43;98656.27;1649208;87;25877;-58
2022/08/29 02:47:00;;;;;;;6.62;3.72;;;;;;;17.21;91.29;98656.84;1649442;87;25700;-58
2022/08/29 02:49:31;;;;;;;5.70;4.00;;;;;;;17.18;91.47;98649.25;1649435;87;27760;-58
2022/08/29 02:52:07;;;;;;;8.03;3.80;;;;;;;17.20;91.29;98653.86;1649217;87;25458;-58
2022/08/29 02:54:34;;;;;;;8.08;3.87;;;;;;;17.20;90.95;98659.39;1649367;87;25643;-59
2022/08/29 02:57:00;;;;;;;10.08;4.08;;;;;;;17.17;91.08;98655.96;1649087;87;25967;-58
2022/08/29 02:59:26;;;;;;;8.30;3.83;;;;;;;17.20;91.28;98657.20;1649148;86;25734;-58
2022/08/29 03:01:52;;;;;;;5.75;3.67;;;;;;;17.18;91.49;98652.02;1649094;87;27517;-59
2022/08/29 03:04:19;;;;;;;8.80;3.90;;;;;;;17.16;91.49;98662.67;1649360;86;25660;-58
2022/08/29 03:06:45;;;;;;;6.20;4.58;;;;;;;17.14;91.78;98661.64;1649197;87;25724;-58
2022/08/29 03:09:12;;;;;;;7.60;4.00;;;;;;;17.13;91.64;98666.16;1649255;87;25812;-58
2022/08/29 03:11:37;;;;;;;7.75;3.87;;;;;;;17.14;91.69;98663.03;1649356;86;25637;-58
2022/08/29 03:14:04;;;;;;;7.62;3.95;;;;;;;17.15;91.61;98667.39;1649025;86;27441;-58
2022/08/29 03:16:30;;;;;;;9.10;4.28;;;;;;;17.16;91.85;98669.59;1648981;87;25698;-58
2022/08/29 03:18:56;;;;;;;7.42;4.15;;;;;;;17.18;91.72;98664.48;1649214;87;25648;-58
2022/08/29 03:21:26;;;;;;;7.47;4.47;;;;;;;17.16;91.29;98663.45;1649123;86;25735;-59
2022/08/29 03:23:55;;;;;;;7.90;4.00;;;;;;;17.15;91.44;98667.39;1649282;86;25685;-58
2022/08/29 03:26:22;;;;;;;8.10;4.00;;;;;;;17.15;91.18;98664.63;1649430;87;27608;-58
2022/08/29 03:28:48;;;;;;;10.23;4.90;;;;;;;17.17;91.38;98669.23;1649328;87;25509;-58
2022/08/29 03:31:15;;;;;;;7.17;4.78;;;;;;;17.17;91.63;98668.42;1649132;86;25651;-58
2022/08/29 03:33:42;;;;;;;8.83;4.70;;;;;;;17.18;91.22;98678.33;1649386;86;25879;-58
2022/08/29 03:36:10;;;;;;;7.95;4.42;;;;;;;17.18;91.28;98688.02;1649633;86;25532;-60
2022/08/29 03:38:37;;;;;;;10.38;4.50;;;;;;;17.18;91.07;98686.63;1649302;86;28424;-58
2022/08/29 03:41:06;;;;;;;9.25;4.40;;;;;;;17.17;91.39;98693.34;1649146;87;25956;-59
2022/08/29 03:43:32;;;;;;;7.40;4.33;;;;;;;17.13;91.36;98696.01;1649348;87;25492;-58
2022/08/29 03:45:59;;;;;;;5.40;4.05;;;;;;;17.11;90.96;98696.16;1649454;87;25838;-58
2022/08/29 03:48:25;;;;;;;9.58;4.45;;;;;;;17.10;91.31;98702.26;1649196;87;25596;-58
2022/08/29 03:50:51;;;;;;;7.35;4.05;;;;;;;17.14;91.12;98700.98;1649469;87;27613;-58
2022/08/29 03:53:17;;;;;;;8.95;3.92;;;;;;;17.14;91.13;98700.98;1649353;87;25733;-61
2022/08/29 03:55:43;;;;;;;7.10;4.22;;;;;;;17.17;90.74;98701.65;1649275;87;25608;-65
2022/08/29 03:58:09;;;;;;;7.45;4.05;;;;;;;17.16;90.31;98706.97;1649453;87;25759;-59
2022/08/29 04:00:36;;;;;;;7.80;4.15;;;;;;;17.14;90.73;98707.33;1649439;86;25453;-58
2022/08/29 04:03:03;;;;;;;7.53;4.08;;;;;;;17.14;90.50;98707.90;1649093;87;28463;-58
2022/08/29 04:05:29;;;;;;;6.33;3.87;;;;;;;17.11;90.28;98709.42;1648939;87;25461;-58
2022/08/29 04:07:58;;;;;;;7.97;4.10;;;;;;;17.08;90.44;98715.67;1649411;87;25600;-58
2022/08/29 04:10:36;;;;;;;11.40;4.40;;;;;;;17.09;90.74;98713.13;1649338;87;25707;-58
2022/08/29 04:13:03;;;;;;;8.25;4.70;;;;;;;17.09;90.56;98713.13;1649238;86;25627;-58
2022/08/29 04:15:31;;;;;;;6.30;4.15;;;;;;;17.10;90.75;98709.78;1649296;87;27435;-58
2022/08/29 04:18:01;;;;;;;7.55;4.42;;;;;;;17.11;91.01;98714.97;1649258;87;25945;-59
2022/08/29 04:20:31;;;;;;;6.08;4.15;;;;;;;17.12;90.99;98712.41;1649500;87;25461;-58
2022/08/29 04:22:59;;;;;;;11.18;4.10;;;;;;;17.12;91.11;98716.56;1649492;86;25766;-58
2022/08/29 04:25:27;;;;;;;7.10;4.03;;;;;;;17.16;91.07;98719.43;1649030;86;25713;-58
2022/08/29 04:27:55;;;;;;;10.23;4.40;;;;;;;17.16;90.72;98720.81;1649308;86;26798;-58
2022/08/29 04:30:24;;;;;;;6.90;3.98;;;;;;;17.24;90.93;98726.73;1649307;87;25555;-58
2022/08/29 04:32:52;;;;;;;7.35;4.08;;;;;;;17.27;90.53;98734.94;1649277;87;25465;-58
2022/08/29 04:35:25;;;;;;;7.33;4.03;;;;;;;17.27;89.92;98737.70;1649228;87;25951;-58
2022/08/29 04:37:51;;;;;;;11.80;3.98;;;;;;;17.27;90.49;98746.02;1649043;86;25690;-58
2022/08/29 04:40:21;;;;;;;8.35;3.98;;;;;;;17.20;90.30;98754.12;1649422;86;27475;-58
2022/08/29 04:42:48;;;;;;;7.78;4.05;;;;;;;17.19;90.39;98761.64;1649668;87;25469;-58
2022/08/29 04:45:19;;;;;;;6.70;3.58;;;;;;;17.18;89.93;98758.06;1642723;87;25494;-58
2022/08/29 04:47:45;;;;;;;;;;;;;;;17.18;89.77;98759.44;1651965;87;26453;-58
2022/08/29 04:50:17;;;;;;;9.70;4.30;;;;;;;17.18;89.78;98764.16;1649187;87;25739;-58
2022/08/29 04:52:44;;;;;;;6.83;4.30;;;;;;;17.16;89.83;98762.35;1649383;87;28202;-58
2022/08/29 04:55:12;;;;;;;9.55;4.72;;;;;;;17.14;89.59;98766.05;1649308;86;25790;-58
2022/08/29 04:57:39;;;;;;;7.15;5.12;;;;;;;17.13;89.82;98768.59;1649593;87;25639;-58
2022/08/29 05:00:14;;;;;;;8.55;5.37;;;;;;;17.10;89.94;98767.32;1649393;87;25748;-58
2022/08/29 05:02:43;;;;;;;11.50;7.12;;;;;;;17.10;89.90;98771.48;1649488;86;25610;-58
2022/08/29 05:05:13;;;;;;;13.13;7.25;;;;;;;17.08;89.69;98781.31;1649590;86;27336;-58
2022/08/29 05:07:46;;;;;;;12.88;8.25;;;;;;;17.09;89.82;98780.95;1649370;86;25477;-58
2022/08/29 05:10:17;;;;;;;13.45;7.78;;;;;;;17.09;89.78;98786.48;1649450;87;25505;-58
2022/08/29 05:12:44;;;;;;;12.40;8.40;;;;;;;17.13;89.80;98792.92;1649239;87;25778;-58
2022/08/29 05:15:12;;;;;;;15.30;9.03;;;;;;;17.09;89.83;98796.18;1649418;87;25627;-58
2022/08/29 05:17:40;;;;;;;13.25;8.58;;;;;;;17.11;89.61;98795.83;1649498;87;28390;-58
2022/08/29 05:20:07;;;;;;;13.90;8.13;;;;;;;17.16;89.64;98800.52;1649261;87;25650;-59
2022/08/29 05:22:35;;;;;;;16.02;8.78;;;;;;;17.15;89.61;98800.88;1649435;86;25497;-58
2022/08/29 05:25:03;;;;;;;15.28;8.18;;;;;;;17.16;89.49;98804.67;1630394;87;26542;-58
2022/08/29 05:27:30;;;;;;;14.73;8.20;;;;;;;17.20;89.29;98812.27;1649543;87;25676;-58
2022/08/29 05:29:57;;;;;;;13.03;7.20;;;;;;;17.21;89.56;98806.98;1649182;87;27524;-58
2022/08/29 05:32:23;;;;;;;13.15;7.80;;;;;;;17.22;88.86;98807.19;1647981;87;25474;-58
2022/08/29 05:34:50;;;;;;;15.38;7.75;;;;;;;17.20;89.45;98804.77;1641504;87;25635;-58
2022/08/29 05:37:19;;;;;;;12.07;7.90;;;;;;;17.22;89.27;98807.19;1649658;87;25707;-58
2022/08/29 05:39:47;;;;;;;12.17;8.00;;;;;;;17.25;89.11;98811.45;1649643;86;25690;-60
2022/08/29 05:42:15;;;;;;;11.73;7.55;;;;;;;17.29;89.24;98812.91;1649453;87;28116;-59
2022/08/29 05:44:42;;;;;;;11.28;7.03;;;;;;;17.32;89.35;98808.05;1649062;87;26354;-59
2022/08/29 05:47:12;;;;;;;12.35;7.15;;;;;;;17.35;89.22;98807.91;1649302;87;25627;-60
2022/08/29 05:49:41;;;;;;;11.70;8.13;;;;;;;17.39;88.84;98807.44;1649619;86;26470;-59
2022/08/29 05:52:09;;;;;;;13.00;7.50;;;;;;;17.43;88.43;98811.91;1642467;86;25444;-60
2022/08/29 05:54:38;;;;;;;12.18;8.10;;;;;;;17.46;89.26;98809.00;1647308;87;27349;-59
2022/08/29 05:57:07;;;;;;;14.78;8.15;;;;;;;17.54;88.76;98812.19;1649325;86;25474;-60
2022/08/29 05:59:36;;;;;;;11.73;7.92;;;;;;;17.59;88.55;98818.62;1649688;87;25625;-61
2022/08/29 06:02:04;;;;;;;11.00;7.78;;;;;;;17.64;88.41;98814.17;1649410;86;25905;-61
2022/08/29 06:04:31;;;;;;;12.30;7.85;;;;;;;17.66;88.29;98822.95;1649447;87;25481;-61
2022/08/29 06:06:57;;;;;;;11.40;7.72;;;;;;;17.66;87.85;98827.10;1649236;86;28328;-61
2022/08/29 06:09:23;;;;;;;13.95;8.40;;;;;;;17.65;87.34;98821.34;1649031;86;25700;-60
2022/08/29 06:11:52;;;;;;;10.30;7.97;;;;;;;17.63;87.60;98826.43;1649478;87;25529;-61
2022/08/29 06:14:19;;;;;;;13.88;8.95;;;;;;;17.62;88.01;98830.38;1649105;87;25809;-60
2022/08/29 06:16:45;;;;;;;11.68;8.28;;;;;;;17.61;88.35;98834.28;1649107;87;25759;-61
2022/08/29 06:19:11;;;;;;;10.70;7.95;;;;;;;17.61;88.11;98836.48;1649111;86;29550;-61
2022/08/29 06:21:37;;;;;;;12.18;8.53;;;;;;;17.54;87.67;98839.89;1649248;86;25504;-61
2022/08/29 06:24:05;;;;;;;11.33;8.05;;;;;;;17.54;88.10;98837.70;1649642;87;25609;-61
2022/08/29 06:26:33;;;;;;;12.55;7.62;;;;;;;17.54;87.50;98837.70;1649172;86;26293;-61
2022/08/29 06:28:59;;;;;;;12.30;7.40;;;;;;;17.57;87.82;98845.30;1649568;87;25664;-61
2022/08/29 06:31:28;;;;;;;11.20;7.85;;;;;;;17.60;87.10;98843.77;1630497;87;27455;-61
2022/08/29 06:33:59;;;;;;;10.25;7.80;;;;;;;17.61;87.38;98858.66;1649483;86;25616;-61
2022/08/29 06:36:28;;;;;;;10.88;7.62;;;;;;;17.61;86.96;98856.45;1649144;87;25633;-61
2022/08/29 06:39:01;;;;;;;12.98;7.67;;;;;;;17.65;86.64;98862.91;1649412;86;26713;-61
2022/08/29 06:41:28;;;;;;;12.23;8.20;;;;;;;17.66;86.69;98863.13;1649181;87;25660;-60
2022/08/29 06:43:56;;;;;;;12.40;7.95;;;;;;;17.70;86.63;98869.56;1646187;87;27013;-61
2022/08/29 06:46:29;;;;;;;15.85;9.15;;;;;;;17.73;86.58;98873.00;1649061;86;25688;-60
2022/08/29 06:48:58;;;;;;;14.45;9.03;;;;;;;17.79;86.87;98872.96;1649331;86;25771;-62
2022/08/29 06:51:26;;;;;;;12.80;8.50;;;;;;;17.88;86.88;98873.37;1649351;87;25650;-61
2022/08/29 06:53:53;;;;;;;12.45;9.15;;;;;;;17.92;86.22;98879.23;1649466;86;25688;-62
2022/08/29 06:56:20;;;;;;;18.55;11.15;;;;;;;17.93;86.26;98873.91;1649082;86;27539;-61
2022/08/29 06:58:47;;;;;;;15.90;10.28;;;;;;;17.95;86.07;98884.64;1648955;86;25441;-61
2022/08/29 07:01:18;;;;;;;16.02;11.20;;;;;;;18.02;86.33;98888.18;1649096;87;25692;-61
2022/08/29 07:03:46;;;;;;;14.33;10.95;;;;;;;18.08;86.27;98892.30;1649627;87;25695;-59
2022/08/29 07:06:13;;;;;;;15.18;10.00;;;;;;;18.08;86.06;98891.48;1649496;87;25667;-59
2022/08/29 07:08:39;;;;;;;14.90;9.93;;;;;;;18.20;86.12;98894.76;1649359;87;27449;-60
2022/08/29 07:11:06;;;;;;;12.75;10.30;;;;;;;18.28;85.84;98893.77;1648954;87;25659;-59
2022/08/29 07:13:33;;;;;;;14.18;9.80;;;;;;;18.40;85.10;98888.69;1649009;86;25422;-59
2022/08/29 07:16:01;;;;;;;13.08;9.45;;;;;;;18.44;84.61;98895.12;1649262;87;26493;-60
2022/08/29 07:18:28;;;;;;;13.62;9.88;;;;;;;18.46;84.72;98897.53;1649043;87;25632;-59
2022/08/29 07:20:54;;;;;;;14.30;9.03;;;;;;;18.48;85.05;98902.94;1649402;86;28153;-59
2022/08/29 07:23:21;;;;;;;11.40;7.65;;;;;;;18.57;84.59;98904.14;1649202;87;26010;-60
2022/08/29 07:25:47;;;;;;;12.07;8.08;;;;;;;18.60;83.82;98908.97;1649956;86;25623;-59
2022/08/29 07:28:13;;;;;;;12.25;8.28;;;;;;;18.63;83.96;98905.47;1649007;87;25745;-60
2022/08/29 07:30:40;;;;;;;12.35;8.45;;;;;;;18.68;84.12;98904.36;1649448;86;25689;-59
2022/08/29 07:33:06;;;;;;;10.78;8.85;;;;;;;18.75;84.31;98910.66;1641996;87;27691;-59
2022/08/29 07:35:33;;;;;;;13.88;8.35;;;;;;;18.78;84.27;98917.69;1640629;87;25768;-59
2022/08/29 07:38:01;;;;;;;12.63;8.35;;;;;;;18.86;84.14;98912.29;1635131;86;25886;-59
2022/08/29 07:40:27;;;;;;;10.95;8.15;;;;;;;18.91;83.80;98918.95;1635800;87;25701;-60
2022/08/29 07:42:54;;;;;;;13.20;8.03;;;;;;;18.99;82.90;98912.94;1640846;86;25637;-59
2022/08/29 07:45:21;;;;;;;13.65;8.80;;;;;;;19.02;81.24;98912.21;1641875;87;27450;-59
2022/08/29 07:47:47;;;;;;;9.35;6.62;;;;;;;18.98;82.44;98909.95;1639986;87;25457;-60
2022/08/29 07:50:14;;;;;;;11.97;7.72;;;;;;;19.03;79.98;98915.23;1641482;87;25454;-59
2022/08/29 07:52:40;;;;;;;12.65;7.87;;;;;;;19.16;82.26;98915.91;1641395;87;25829;-60
2022/08/29 07:55:09;;;;;;;13.65;8.53;;;;;;;19.29;82.21;98914.58;1640089;87;25699;-60
2022/08/29 07:57:35;;;;;;;11.65;7.80;;;;;;;19.42;81.96;98914.42;1640887;87;27506;-59
2022/08/29 08:00:05;;;;;;;9.73;7.20;;;;;;;19.56;80.68;98916.09;1642129;87;25479;-60
2022/08/29 08:02:31;;;;;;;12.30;7.70;;;;;;;19.77;81.37;98915.45;1624792;88;25444;-60
2022/08/29 08:04:58;;;;;;;9.28;7.25;;;;;;;19.97;79.91;98919.59;1627457;88;25742;-59
2022/08/29 08:07:25;;;;;;;8.68;6.87;;;;;;;20.06;76.56;98918.75;1627892;87;25714;-59
2022/08/29 08:09:52;;;;;;;9.85;6.92;;;;;;;20.29;79.03;98921.52;1627579;88;27486;-60
2022/08/29 08:12:18;;;;;;;10.43;7.72;;;;;;;20.41;77.57;98924.67;1627362;88;25787;-60
2022/08/29 08:14:46;;;;;;;12.35;9.00;;;;;;;20.47;76.88;98923.79;1627690;87;25724;-60
2022/08/29 08:17:13;;;;;;;12.20;9.00;;;;;;;20.75;77.85;98924.58;1627538;88;25960;-60
2022/08/29 08:19:40;;;;;;;11.25;8.88;;;;;;;20.85;75.53;98929.48;1627819;88;25731;-60
2022/08/29 08:22:08;;;;;;;10.53;8.00;;;;;;;20.87;76.50;98924.94;1627717;88;27605;-60
2022/08/29 08:24:34;;;;;;;9.05;6.40;;;;;;;20.86;76.41;98929.69;1627431;88;25485;-60
2022/08/29 08:27:02;;;;;;;8.63;6.97;;;;;;;20.86;73.74;98931.66;1627573;87;25519;-60
2022/08/29 08:29:28;;;;;;;9.90;7.00;;;;;;;20.88;76.15;98934.88;1627576;88;25861;-60
2022/08/29 08:31:58;;;;;;;17.40;7.50;;;;;;;20.92;75.85;98937.96;1627680;88;25511;-60
2022/08/29 08:34:23;;;;;;;11.45;7.65;;;;;;;21.03;76.24;98938.11;1632811;86;26954;-60
2022/08/29 08:36:50;;;;;;;10.08;7.10;;;;;;;21.09;72.20;98939.15;1652251;86;26504;-60
2022/08/29 08:39:17;;;;;;;9.68;7.20;;;;;;;21.10;74.81;98936.59;1655654;85;25695;-60
2022/08/29 08:41:58;;;;;;;12.33;8.03;;;;;;;21.25;76.32;98941.75;1654174;85;25910;-60
2022/08/29 08:44:47;;;;;;;9.68;7.85;;;;;;;21.40;73.99;98939.34;1612665;87;25792;-60
2022/08/29 08:47:18;;;;;;;12.75;9.03;;;;;;;21.51;74.48;98942.27;1611100;88;25916;-60
2022/08/29 08:49:49;;;;;;;13.30;8.40;;;;;;;21.68;74.17;98941.44;1651908;85;25874;-60
2022/08/29 08:52:42;;;;;;;12.70;8.45;;;;;;;21.74;74.47;98946.06;1624509;88;25565;-59
2022/08/29 08:55:29;;;;;;;10.90;8.35;;;;;;;21.88;73.64;98950.41;1638926;87;25730;-60
2022/08/29 08:58:08;;;;;;;11.57;7.92;;;;;;;22.02;73.95;98947.57;1640424;87;25458;-60
2022/08/29 09:00:42;;;;;;;11.20;9.38;;;;;;;21.99;71.30;98943.54;1652475;86;28180;-60
2022/08/29 09:03:29;;;;;;;12.63;8.38;;;;;;;22.40;72.67;98942.67;1642790;87;25596;-60
2022/08/29 09:06:16;;;;;;;9.30;6.58;;;;;;;22.89;70.32;98932.86;1613478;88;25696;-61
2022/08/29 09:08:54;;;;;;;8.53;6.78;;;;;;;23.55;68.81;98938.72;1612105;88;25732;-60
2022/08/29 09:12:00;;;;;;;9.13;6.55;;;;;;;24.17;67.01;98931.23;1618600;88;25660;-60
2022/08/29 09:15:02;;;;;;;9.95;6.58;;;;;;;24.71;66.32;98928.75;1610976;88;28363;-60
2022/08/29 09:17:46;;;;;;;9.05;6.20;;;;;;;25.33;65.00;98920.96;1650388;86;26181;-60
2022/08/29 09:20:21;;;;;;;10.30;7.12;;;;;;;25.73;63.38;98922.76;1652685;86;25612;-60
2022/08/29 09:23:23;;;;;;;9.03;8.08;;;;;;;25.92;56.87;98919.41;1651602;86;25687;-60
2022/08/29 09:25:51;;;;;;;8.98;8.08;;;;;;;25.77;60.94;98913.11;1652848;86;25596;-62
2022/08/29 09:28:19;;;;;;;8.48;7.47;;;;;;;25.71;60.14;98917.56;1656536;86;27491;-61
2022/08/29 09:31:17;;;;;;;8.68;7.42;;;;;;;25.61;60.00;98918.41;1639426;87;25477;-62
2022/08/29 09:33:51;;;;;;;10.08;6.78;;;;;;;25.26;56.57;98914.77;1634647;87;25964;-61
2022/08/29 09:36:47;;;;;;;7.30;5.62;;;;;;;25.06;58.26;98911.65;1639913;87;26179;-60
2022/08/29 09:39:25;;;;;;;8.18;5.95;;;;;;;25.15;58.21;98911.20;1623346;86;26562;-60
2022/08/29 09:42:16;;;;;;;6.92;5.10;;;;;;;25.57;57.82;98915.61;1647872;86;27377;-60
2022/08/29 09:44:58;;;;;;;6.92;5.53;;;;;;;26.11;58.62;98913.65;1638138;87;25755;-60
2022/08/29 09:47:28;;;;;;;6.87;5.78;;;;;;;26.44;56.51;98912.77;1639644;87;25711;-60
2022/08/29 09:50:18;;;;;;;7.58;6.12;;;;;;;26.82;53.49;98910.55;1639766;86;25886;-61
2022/08/29 09:52:56;;;;;;;7.62;6.35;;;;;;;26.58;51.39;98906.21;1636206;87;25863;-61
2022/08/29 09:55:43;;;;;;;6.67;6.00;;;;;;;27.09;53.82;98912.70;1635192;87;28433;-63
2022/08/29 09:58:21;;;;;;;7.58;5.90;;;;;;;27.27;52.17;98908.84;1615314;88;25830;-61
2022/08/29 10:01:05;;;;;;;7.00;6.10;;;;;;;27.77;51.35;98907.34;1607414;89;25698;-61
2022/08/29 10:03:41;;;;;;;7.65;6.35;;;;;;;28.24;51.64;98909.22;1623677;88;25740;-61
2022/08/29 10:06:18;;;;;;;7.42;6.40;;;;;;;28.27;51.92;98904.14;1638117;87;25706;-61
2022/08/29 10:09:08;;;;;;;6.10;5.50;;;;;;;28.33;49.46;98905.88;1638078;87;28219;-61
2022/08/29 10:11:46;;;;;;;8.73;5.85;;;;;;;28.40;49.20;98901.50;1637911;87;27228;-61
2022/08/29 10:14:21;;;;;;;7.20;5.85;;;;;;;28.67;49.57;98905.63;1635860;87;25667;-61
2022/08/29 10:19:52;;;;;;;7.35;5.83;;;;;;;29.28;47.76;98904.84;1638074;87;25535;-61
2022/08/29 10:22:45;;;;;;;7.22;5.87;;;;;;;28.74;48.01;98908.94;1637787;87;27593;-62
2022/08/29 10:25:30;;;;;;;6.37;5.58;;;;;;;28.24;49.11;98909.22;1609387;88;25727;-61
2022/08/29 10:28:12;;;;;;;9.05;6.17;;;;;;;28.29;49.51;98901.67;1605148;87;25645;-62
2022/08/29 10:30:56;;;;;;;6.50;5.85;;;;;;;29.02;46.59;98903.18;1603762;87;25992;-61
2022/08/29 10:33:46;;;;;;;7.28;6.35;;;;;;;29.65;47.52;98900.62;1616293;87;25491;-61
2022/08/29 10:36:21;;;;;;;6.15;5.40;;;;;;;29.85;46.97;98901.98;1617465;87;27486;-62
2022/08/29 10:38:53;;;;;;;7.15;5.78;;;;;;;30.09;45.04;98906.02;1618968;88;25650;-62
2022/08/29 10:41:45;;;;;;;6.28;5.55;;;;;;;29.98;42.36;98902.66;1619702;88;25689;-62
2022/08/29 10:44:47;;;;;;;6.78;4.87;;;;;;;29.84;44.03;98909.48;1625809;88;25689;-62
2022/08/29 10:47:50;;;;;;;6.78;5.05;;;;;;;29.83;43.47;98902.22;1625855;87;25442;-62
2022/08/29 10:50:42;;;;;;;6.83;4.40;;;;;;;30.27;44.68;98903.37;1626042;88;27504;-62
2022/08/29 10:53:19;;;;;;;5.47;4.15;;;;;;;31.07;43.59;98904.05;1633768;87;25468;-61
2022/08/29 10:56:09;;;;;;;6.03;4.45;;;;;;;31.52;43.69;98899.47;1634931;87;25621;-62
2022/08/29 10:58:57;;;;;;;;;;;;;;;31.89;40.87;98902.59;1629993;87;25914;-60
2022/08/29 11:01:32;;;;;;;7.20;3.77;;;;;;;31.66;40.56;98903.89;1634871;87;25687;-59
2022/08/29 11:04:16;;;;;;;6.33;4.12;;;;;;;31.90;41.75;98898.50;1635251;86;27393;-59
2022/08/29 11:06:46;;;;;;;6.30;3.90;;;;;;;32.49;40.25;98890.28;1634600;87;25517;-59
2022/08/29 11:09:17;;;;;;;5.65;3.42;;;;;;;32.95;39.65;98891.89;1635205;87;25638;-62
2022/08/29 11:12:08;;;;;;;6.12;3.40;;;;;;;32.90;37.09;98887.61;1634991;86;25742;-59
2022/08/29 11:14:38;;;;;;;3.75;3.05;;;;;;;32.39;39.22;98885.94;1635049;87;25424;-59
2022/08/29 11:17:09;;;;;;;4.55;3.55;;;;;;;31.82;39.51;98885.80;1633782;87;27509;-61
2022/08/29 11:20:01;;;;;;;5.33;3.40;;;;;;;31.63;40.49;98881.37;1634716;87;25945;-60
2022/08/29 11:22:41;;;;;;;5.17;3.40;;;;;;;31.48;40.30;98879.59;1634773;87;25463;-59
2022/08/29 11:25:12;;;;;;;4.55;3.17;;;;;;;31.51;40.44;98876.66;1631497;87;25750;-60
2022/08/29 11:28:04;;;;;;;4.62;3.22;;;;;;;31.99;40.58;98872.33;1630167;87;25724;-59
2022/08/29 11:30:48;;;;;;;4.83;3.15;;;;;;;32.27;39.19;98870.53;1625770;87;27591;-58
2022/08/29 11:33:41;;;;;;;5.08;2.90;;;;;;;32.33;37.34;98869.34;1626301;88;25542;-59
2022/08/29 11:36:36;;;;;;;4.37;3.00;;;;;;;32.54;37.82;98864.98;1626121;88;25504;-58
2022/08/29 11:39:23;;;;;;;4.17;2.98;;;;;;;33.06;38.73;98863.14;1625166;88;25704;-59
2022/08/29 11:41:54;;;;;;;4.20;2.67;;;;;;;33.41;36.65;98865.17;1626263;88;25601;-63
2022/08/29 11:44:29;;;;;;;4.62;2.70;;;;;;;33.40;37.50;98872.13;1625934;88;28103;-59
2022/08/29 11:46:57;;;;;;;3.45;2.72;;;;;;;33.79;37.40;98871.80;1625428;88;25576;-59
2022/08/29 11:49:47;;;;;;;3.25;2.42;;;;;;;33.69;36.30;98872.23;1626005;88;25712;-61
2022/08/29 11:52:21;;;;;;;2.42;2.20;;;;;;;33.70;35.78;98868.16;1625713;88;25914;-63
2022/08/29 11:54:53;;;;;;;5.12;2.40;;;;;;;33.93;34.49;98868.19;1626133;88;25632;-64